EW7704 Weather Reports


Display with metric or nautical units.
time (UTC)temp
F
wind
direction
speed
MPH
gust
MPH
rain 1hr
in
rain 24hr
in
rain mn
in
humidity
%
barometer
mb
20190717044620 76 38 1.0 4.0 0.00 0.00 0.00 44 1001.9
20190717043212 75 38 2.0 4.0 0.00 0.00 0.00 46 1002.1
20190717041604 77 38 2.0 5.0 0.00 0.00 0.00 43 1002.1
20190717040116 78 38 1.0 4.0 0.00 0.00 0.00 42 1002.3
20190717034654 78 38 0.0 4.0 0.00 0.00 0.00 41 1002.5
20190717033128 79 38 2.0 3.0 0.00 0.00 0.00 40 1002.3
20190717031701 80 38 1.0 4.0 0.00 0.00 0.00 38 1002.1
20190717030124 81 38 2.0 4.0 0.00 0.00 0.00 36 1001.9
20190717024638 83 38 2.0 5.0 0.00 0.00 0.00 34 1001.7
20190717023053 85 38 2.0 5.0 0.00 0.00 0.00 32 1001.6
20190717021626 87 38 1.0 4.0 0.00 0.00 0.00 30 1001.7
20190717020038 88 38 1.0 4.0 0.00 0.00 0.00 28 1001.7
20190717014622 90 38 0.0 3.0 0.00 0.00 0.00 30 1001.7
20190717013036 91 38 0.0 1.0 0.00 0.00 0.00 29 1001.6
20190717011539 91 38 0.0 1.0 0.00 0.00 0.00 23 1001.8
20190717010044 92 38 0.0 4.0 0.00 0.00 0.00 22 1002.0
20190717004545 94 38 1.0 4.0 0.00 0.00 0.00 21 1002.0
20190717003032 94 38 0.0 5.0 0.00 0.00 0.00 19 1001.9
20190717001540 95 38 1.0 3.0 0.00 0.00 0.00 21 1002.1
20190717000056 95 38 2.0 4.0 0.00 0.00 0.00 21 1002.2
20190716234542 95 38 1.0 4.0 0.00 0.00 0.00 20 1002.3
20190716233116 95 39 3.0 6.0 0.00 0.00 0.00 24 1002.7
20190716231523 96 36 3.0 12.0 0.00 0.00 0.00 22 1003.0
20190716230056 95 349 2.0 5.0 0.00 0.00 0.00 20 1003.2
20190716224546 93 348 2.0 4.0 0.00 0.00 0.00 20 1002.9
20190716223053 92 348 0.0 3.0 0.00 0.00 0.00 23 1003.0
20190716221517 93 348 1.0 7.0 0.00 0.00 0.00 20 1003.2
20190716220017 95 348 4.0 10.0 0.00 0.00 0.00 22 1003.3
20190716214513 97 360 3.0 8.0 0.00 0.00 0.00 22 1003.3
20190716213009 96 360 4.0 8.0 0.00 0.00 0.00 20 1003.5
20190716211507 95 3 2.0 5.0 0.00 0.00 0.00 28 1003.9
20190716210022 96 1 3.0 7.0 0.00 0.00 0.00 36 1004.4
20190716204754 94 338 3.0 10.0 0.00 0.00 0.00 21 1004.3
20190716203130 94 292 3.0 10.0 0.00 0.00 0.00 25 1004.4
20190716201710 94 275 1.0 10.0 0.00 0.00 0.00 28 1004.4
20190716200131 94 269 4.0 10.0 0.00 0.00 0.00 30 1004.6
20190716194610 93 271 3.0 10.0 0.00 0.00 0.00 31 1004.8
20190716193135 91 257 2.0 9.0 0.00 0.00 0.00 36 1004.9
20190716191645 90 261 3.0 10.0 0.00 0.00 0.00 38 1005.2
20190716190120 90 217 2.0 5.0 0.00 0.00 0.00 37 1005.7
20190716184554 88 222 1.0 5.0 0.00 0.00 0.00 37 1006.0
20190716183131 87 199 0.0 5.0 0.00 0.00 0.00 44 1006.0
20190716181639 85 201 2.0 4.0 0.00 0.00 0.00 44 1006.6
20190716180051 83 230 1.0 5.0 0.00 0.00 0.00 45 1006.7
20190716174533 82 229 0.0 5.0 0.00 0.00 0.00 48 1006.8
20190716173050 81 234 2.0 5.0 0.00 0.00 0.00 49 1007.0
20190716171530 81 244 1.0 4.0 0.00 0.00 0.00 52 1007.1
20190716170013 78 248 1.0 4.0 0.00 0.00 0.00 52 1007.3
20190716164510 78 248 2.0 8.0 0.00 0.00 0.00 52 1007.5
20190716163008 78 246 2.0 5.0 0.00 0.00 0.00 54 1007.5
20190716161533 78 235 1.0 6.0 0.00 0.00 0.00 56 1007.6
20190716154624 75 240 0.0 4.0 0.00 0.00 0.00 60 1008.1
20190716153123 75 241 0.0 5.0 0.00 0.00 0.00 60 1008.4
20190716151650 73 242 1.0 6.0 0.00 0.00 0.00 65 1008.3
20190716150246 72 244 1.0 6.0 0.00 0.00 0.00 65 1008.4
20190716144703 71 244 2.0 9.0 0.00 0.00 0.00 65 1008.3
20190716143124 71 234 3.0 6.0 0.00 0.00 0.00 65 1008.0
20190716141617 69 244 3.0 6.0 0.00 0.00 0.00 67 1007.9
20190716140100 68 314 4.0 6.0 0.00 0.00 0.00 68 1008.0
20190716134605 67 38 3.0 5.0 0.00 0.00 0.00 75 1008.0
20190716133135 65 44 0.0 1.0 0.00 0.00 0.00 80 1007.7
20190716131542 63 44 0.0 2.0 0.00 0.00 0.00 81 1007.8
20190716130119 61 44 1.0 2.0 0.00 0.00 0.00 85 1007.6
20190716124546 60 44 0.0 2.0 0.00 0.00 0.00 87 1007.6
20190716123059 59 44 0.0 2.0 0.00 0.00 0.00 87 1007.5
20190716121608 58 44 0.0 2.0 0.00 0.00 0.00 88 1007.6
20190716120114 58 44 0.0 2.0 0.00 0.00 0.00 89 1007.4
20190716114527 58 44 0.0 1.0 0.00 0.00 0.00 89 1007.4
20190716113029 58 44 0.0 2.0 0.00 0.00 0.00 90 1007.3
20190716111521 58 44 0.0 2.0 0.00 0.00 0.00 90 1007.3
20190716110040 58 44 0.0 2.0 0.00 0.00 0.00 90 1007.2
20190716104538 59 44 0.0 1.0 0.00 0.00 0.00 89 1007.3
20190716103057 59 44 0.0 2.0 0.00 0.00 0.00 90 1007.0
20190716101515 59 44 1.0 2.0 0.00 0.00 0.00 90 1006.9
20190716100010 59 44 1.0 4.0 0.00 0.00 0.00 90 1006.8
20190716094515 59 44 0.0 5.0 0.00 0.00 0.00 90 1006.9
20190716093006 59 34 2.0 5.0 0.00 0.00 0.00 91 1007.0
20190716091512 59 3 0.0 3.0 0.00 0.00 0.00 90 1007.0
20190716090004 59 3 1.0 2.0 0.00 0.00 0.00 90 1007.1
20190716084503 60 3 0.0 2.0 0.00 0.00 0.00 89 1007.0
20190716083227 60 2 0.0 2.0 0.00 0.00 0.00 87 1007.0
20190716081656 61 3 0.0 1.0 0.00 0.00 0.00 87 1006.7
20190716080139 61 3 0.0 1.0 0.00 0.00 0.00 84 1006.8
20190716074634 61 3 0.0 2.0 0.00 0.00 0.00 84 1006.9
20190716073123 62 3 2.0 3.0 0.00 0.00 0.00 79 1006.9
20190716071641 62 4 0.0 2.0 0.00 0.00 0.00 80 1006.7
20190716070154 62 2 0.0 2.0 0.00 0.00 0.00 79 1006.7
20190716064620 62 2 0.0 1.0 0.00 0.00 0.00 80 1006.8
20190716063120 62 2 0.0 3.0 0.00 0.00 0.00 80 1007.0
20190716061619 63 2 0.0 1.0 0.00 0.00 0.00 77 1006.9
20190716060104 64 2 2.0 5.0 0.00 0.00 0.00 77 1006.8
20190716054635 64 56 1.0 3.0 0.00 0.00 0.00 75 1006.8
20190716053114 65 54 0.0 2.0 0.00 0.00 0.00 73 1006.7
20190716051631 67 54 0.0 1.0 0.00 0.00 0.00 70 1007.0
20190716050112 67 54 0.0 4.0 0.00 0.00 0.00 68 1007.1